메인 페이지
METAR-TAF:

METAR-TAF

공항 :

마드리드 바라하스 국제공항

마드리드, 스페인

위도: 40-27N, 경도: 003-33W, 고도: 609m

현재 날씨관측

예보는 39분 전, 00:30시(UTC)에 발표되었습니다.
6kt
온도 22°C
습도 46%
기압 1019 hPa
시정 10km 이상
1500m 미만 상공 구름 및 적란운 없음

METAR: LEMD 150030Z 35006KT CAVOK 22/10 Q1019 NOSIG

시각: 03:09 (01:09 UTC)

예보

예보는 2 시간 9분 전, 23:00시(UTC)에 발표되었습니다.
예보 대상 시간: 15일 00시부터 16일 06시까지 (UTC)
북동7kt
시정 10km 이상
1500m 미만 상공 구름 및 적란운 없음
확률 40% :
일시적
15일 11시부터 15일 19시까지 (UTC)
남서8kt
확률 40% :
일시적
15일 21시부터 16일 02시까지 (UTC)
남남동10kt

TAF: LEMD 142300Z 1500/1606 04007KT CAVOK TX35/1515Z TN18/1506Z PROB40 TEMPO 1511/1519 23008KT PROB40 TEMPO 1521/1602 16010KT

4,000개 이상의 공항 관측 자료 및 예보 (METAR 및 TAF 보고).

지도상에서 검색 가능한 기상관측소가 노란 점과 빨간 점으로 표시되어 있습니다.

기상관측소 명을 보려면 표시 위로 마우스를 이동하세요.

날씨 관측과 예보를 보려면 클릭하세요.

지도 변경 : 확대하려면 엑스 표시가 있는 녹색 버튼, 축소하려면 빼기 표시가 있는 녹색 버튼, 다음 페이지의 지도를 보려면 녹색 화살표를 클릭하세요.


METAR-TAF: